Barhom II — 5IM534 — position and weather

sailwx.info

Track history (hours):
 
Tides and Currents Weather Stations Pressure Air Temp Water Temp Dewpoint Dewpoint Depression Visibility Wind Speed Wind Dir Waves Ship Positions

Barhom II

Last reported at 2016-Jul-02 01:29 UTC. Time now 2016-Jul-02 02:10 UTC.
Position N 39°28' E 004°48'.

Length 83 m.

Type: Cargo ship. MMSI: 677043400.

Date/timePositionNaut miles runAvg speedWind from/ knotsBaromVisibWave heightAir tempDewpointWater temp
2016-Jul-02 01:29N 39°28' E 004°48'1011.1
2016-Jul-02 00:33N 39°24' E 005°00'29310.8
2016-Jun-30 21:33N 37°35' E 010°47'1411.1
2016-Jun-30 20:17N 37°29' E 011°03'811.1
2016-Jun-30 19:33N 37°26' E 011°12'1110.7
2016-Jun-30 18:33N 37°19' E 011°23'1111.3
2016-Jun-30 17:33N 37°09' E 011°30'1111.4
2016-Jun-30 16:34N 36°59' E 011°37'1111.1
2016-Jun-30 15:34N 36°50' E 011°45'1110.9
2016-Jun-30 14:33N 36°41' E 011°52'1111.0
2016-Jun-30 13:34N 36°32' E 012°00'1111.1
2016-Jun-30 12:33N 36°22' E 012°07'1111.3
2016-Jun-30 11:34N 36°13' E 012°14'1111.4
2016-Jun-30 10:33N 36°03' E 012°22'1111.4
2016-Jun-30 09:33N 35°53' E 012°29'1111.3
2016-Jun-30 08:33N 35°44' E 012°37'1111.0
2016-Jun-30 07:33N 35°34' E 012°44'1110.8
2016-Jun-30 06:33N 35°25' E 012°51'1110.7
2016-Jun-30 05:33N 35°15' E 012°56'1111.0
2016-Jun-30 04:33N 35°05' E 013°01'1111.1
2016-Jun-30 03:34N 34°55' E 013°06'1111.3
2016-Jun-30 02:33N 34°44' E 013°12'1111.3
2016-Jun-30 01:33N 34°34' E 013°17'1211.3
2016-Jun-30 00:30N 34°23' E 013°22'1411.3
2016-Jun-29 23:16N 34°10' E 013°29'2011.4
2016-Jun-29 21:33N 33°52' E 013°38'1511.3
2016-Jun-29 20:11N 33°38' E 013°45'711.4
2016-Jun-29 19:33N 33°31' E 013°48'1111.5
2016-Jun-29 18:34N 33°20' E 013°54'1211.4
2016-Jun-29 17:33N 33°10' E 013°59'1110.9
2016-Jun-29 16:33N 33°00' E 014°05'1110.7
2016-Jun-29 15:33N 32°51' E 014°11'1110.0
2016-Jun-29 14:29N 32°41' E 014°16'1 0.3
2016-Jun-29 10:30N 32°41' E 014°15'0 0.0
2016-Jun-29 09:33N 32°41' E 014°15'0 0.0
2016-Jun-29 07:21N 32°41' E 014°15'0 0.0
2016-Jun-28 15:18N 32°41' E 014°15'0 0.0
2016-Jun-28 14:33N 32°41' E 014°15'0 0.0
2016-Jun-28 13:30N 32°41' E 014°15'0 0.0
2016-Jun-28 12:33N 32°41' E 014°15'0 0.0
2016-Jun-28 11:30N 32°41' E 014°15'0 0.0
2016-Jun-28 10:33N 32°41' E 014°15'0 0.0
2016-Jun-28 09:30N 32°41' E 014°15'0 0.0
2016-Jun-28 08:27N 32°41' E 014°15'0 0.0
2016-Jun-28 06:24N 32°41' E 014°15'0 0.0
2016-Jun-28 03:30N 32°41' E 014°15'0 0.0
2016-Jun-28 02:30N 32°41' E 014°15'0 0.0
2016-Jun-28 01:30N 32°41' E 014°15'0 0.0
2016-Jun-26 18:33N 32°41' E 014°15'0 0.0
2016-Jun-26 17:12N 32°41' E 014°15'0 0.0
2016-Jun-26 15:30N 32°41' E 014°15'  
2016-Jun-22 07:33N 38°05' E 009°02'  
Track history (hours):
 
Tides and Currents Weather Stations Pressure Air Temp Water Temp Dewpoint Dewpoint Depression Visibility Wind Speed Wind Dir Waves Ship Positions

Barhom II

Last reported at 2016-Jul-02 01:29 UTC. Time now 2016-Jul-02 02:10 UTC.
Position N 39°28' E 004°48'.

Length 83 m.

Type: Cargo ship. MMSI: 677043400.

Date/timePositionNaut miles runAvg speedWind from/ knotsBaromVisibWave heightAir tempDewpointWater temp
2016-Jul-02 01:29N 39°28' E 004°48'1011.1
2016-Jul-02 00:33N 39°24' E 005°00'29310.8
2016-Jun-30 21:33N 37°35' E 010°47'1411.1
2016-Jun-30 20:17N 37°29' E 011°03'811.1
2016-Jun-30 19:33N 37°26' E 011°12'1110.7
2016-Jun-30 18:33N 37°19' E 011°23'1111.3
2016-Jun-30 17:33N 37°09' E 011°30'1111.4
2016-Jun-30 16:34N 36°59' E 011°37'1111.1
2016-Jun-30 15:34N 36°50' E 011°45'1110.9
2016-Jun-30 14:33N 36°41' E 011°52'1111.0
2016-Jun-30 13:34N 36°32' E 012°00'1111.1
2016-Jun-30 12:33N 36°22' E 012°07'1111.3
2016-Jun-30 11:34N 36°13' E 012°14'1111.4
2016-Jun-30 10:33N 36°03' E 012°22'1111.4
2016-Jun-30 09:33N 35°53' E 012°29'1111.3
2016-Jun-30 08:33N 35°44' E 012°37'1111.0
2016-Jun-30 07:33N 35°34' E 012°44'1110.8
2016-Jun-30 06:33N 35°25' E 012°51'1110.7
2016-Jun-30 05:33N 35°15' E 012°56'1111.0
2016-Jun-30 04:33N 35°05' E 013°01'1111.1
2016-Jun-30 03:34N 34°55' E 013°06'1111.3
2016-Jun-30 02:33N 34°44' E 013°12'1111.3
2016-Jun-30 01:33N 34°34' E 013°17'1211.3
2016-Jun-30 00:30N 34°23' E 013°22'1411.3
2016-Jun-29 23:16N 34°10' E 013°29'2011.4
2016-Jun-29 21:33N 33°52' E 013°38'1511.3
2016-Jun-29 20:11N 33°38' E 013°45'711.4
2016-Jun-29 19:33N 33°31' E 013°48'1111.5
2016-Jun-29 18:34N 33°20' E 013°54'1211.4
2016-Jun-29 17:33N 33°10' E 013°59'1110.9
2016-Jun-29 16:33N 33°00' E 014°05'1110.7
2016-Jun-29 15:33N 32°51' E 014°11'1110.0
2016-Jun-29 14:29N 32°41' E 014°16'1 0.3
2016-Jun-29 10:30N 32°41' E 014°15'0 0.0
2016-Jun-29 09:33N 32°41' E 014°15'0 0.0
2016-Jun-29 07:21N 32°41' E 014°15'0 0.0
2016-Jun-28 15:18N 32°41' E 014°15'0 0.0
2016-Jun-28 14:33N 32°41' E 014°15'0 0.0
2016-Jun-28 13:30N 32°41' E 014°15'0 0.0
2016-Jun-28 12:33N 32°41' E 014°15'0 0.0
2016-Jun-28 11:30N 32°41' E 014°15'0 0.0
2016-Jun-28 10:33N 32°41' E 014°15'0 0.0
2016-Jun-28 09:30N 32°41' E 014°15'0 0.0
2016-Jun-28 08:27N 32°41' E 014°15'0 0.0
2016-Jun-28 06:24N 32°41' E 014°15'0 0.0
2016-Jun-28 03:30N 32°41' E 014°15'0 0.0
2016-Jun-28 02:30N 32°41' E 014°15'0 0.0
2016-Jun-28 01:30N 32°41' E 014°15'0 0.0
2016-Jun-26 18:33N 32°41' E 014°15'0 0.0
2016-Jun-26 17:12N 32°41' E 014°15'0 0.0
2016-Jun-26 15:30N 32°41' E 014°15'  
2016-Jun-22 07:33N 38°05' E 009°02'  

Dump ship's entire track history